Time;durP1;ratioP1;P1;durP2;ratioP2;P2;SDS_P1;SDS_P2;PMS_P1;PMS_P2;Temp;Humidity;BMP_temperature;BMP_pressure;BME280_temperature;BME280_humidity;BME280_pressure;Samples;Min_cycle;Max_cycle;Signal;HPM_P1;HPM_P2
2023/03/13 00:01:16;;;;;;;0.63;0.03;;;7.80;90.60;;;;;;4980783;28;87083;-71
2023/03/13 00:03:42;;;;;;;2.00;0.10;;;7.90;90.50;;;;;;4998902;28;88141;-71
2023/03/13 00:06:08;;;;;;;0.40;0.05;;;7.90;90.50;;;;;;4999213;28;87351;-72
2023/03/13 00:08:33;;;;;;;1.17;0.10;;;7.90;90.20;;;;;;4985204;28;87473;-72
2023/03/13 00:11:08;;;;;;;1.10;0.00;;;8.00;90.20;;;;;;4978053;28;87514;-73
2023/03/13 00:13:34;;;;;;;0.75;0.00;;;8.00;89.90;;;;;;4975486;28;89399;-73
2023/03/13 00:16:20;;;;;;;0.85;0.03;;;8.10;89.70;;;;;;4986683;28;87656;-73
2023/03/13 00:18:48;;;;;;;1.33;0.10;;;8.10;90.00;;;;;;4998183;28;87429;-74
2023/03/13 00:21:14;;;;;;;0.50;0.10;;;8.10;88.90;;;;;;4981100;28;87395;-72
2023/03/13 00:23:40;;;;;;;0.85;0.10;;;8.10;89.10;;;;;;4985364;28;88654;-72
2023/03/13 00:26:08;;;;;;;0.73;0.10;;;8.10;89.20;;;;;;4995238;28;87349;-72
2023/03/13 00:28:35;;;;;;;1.55;0.10;;;8.10;89.70;;;;;;4994479;28;87533;-71
2023/03/13 00:31:07;;;;;;;0.77;0.10;;;8.20;89.10;;;;;;4975598;28;87780;-73
2023/03/13 00:33:38;;;;;;;2.25;0.00;;;8.10;88.50;;;;;;4978508;28;87431;-72
2023/03/13 00:36:09;;;;;;;0.93;0.10;;;8.10;88.40;;;;;;4974651;28;88360;-71
2023/03/13 00:38:35;;;;;;;0.50;0.00;;;8.10;88.60;;;;;;4980449;28;87752;-72
2023/03/13 00:41:06;;;;;;;1.58;0.05;;;8.10;89.00;;;;;;4978704;28;86783;-71
2023/03/13 00:43:31;;;;;;;;;;;8.00;88.40;;;;;;4966435;28;87726;-71
2023/03/13 00:45:57;;;;;;;0.43;0.03;;;8.10;88.80;;;;;;4980175;28;87696;-72
2023/03/13 00:48:24;;;;;;;0.82;0.10;;;7.90;88.50;;;;;;4977861;28;88119;-72
2023/03/13 00:50:49;;;;;;;0.40;0.10;;;7.90;88.70;;;;;;4974785;28;87475;-72
2023/03/13 00:53:16;;;;;;;0.70;0.10;;;7.90;88.90;;;;;;4977808;28;89104;-71
2023/03/13 00:55:59;;;;;;;0.32;0.00;;;7.90;89.30;;;;;;4979230;28;87846;-71
2023/03/13 00:58:26;;;;;;;0.73;0.10;;;7.90;89.60;;;;;;4976851;28;88954;-72
2023/03/13 01:00:53;;;;;;;0.60;0.10;;;8.00;89.10;;;;;;4976967;28;87108;-71
2023/03/13 01:03:20;;;;;;;0.57;0.03;;;8.00;88.90;;;;;;4990963;28;87847;-72
2023/03/13 01:05:58;;;;;;;0.82;0.10;;;8.10;88.70;;;;;;4998206;28;87379;-72
2023/03/13 01:08:24;;;;;;;1.05;0.00;;;8.10;88.20;;;;;;4998361;28;87410;-71
2023/03/13 01:10:56;;;;;;;1.10;0.08;;;8.10;87.80;;;;;;4981352;28;87172;-71
2023/03/13 01:13:21;;;;;;;1.40;0.10;;;8.20;87.40;;;;;;4974852;28;88538;-72
2023/03/13 01:15:47;;;;;;;0.50;0.00;;;8.20;87.10;;;;;;4975594;28;88211;-72
2023/03/13 01:18:14;;;;;;;0.70;0.00;;;8.20;87.10;;;;;;4972569;28;87421;-73
2023/03/13 01:20:40;;;;;;;1.30;0.00;;;8.30;86.90;;;;;;4977188;28;87360;-72
2023/03/13 01:23:06;;;;;;;1.10;0.03;;;8.30;86.70;;;;;;4971394;28;88127;-72
2023/03/13 01:25:36;;;;;;;0.38;0.00;;;8.20;86.50;;;;;;4977347;28;87975;-72
2023/03/13 01:28:02;;;;;;;0.95;0.10;;;8.20;85.60;;;;;;4989064;28;87772;-71
2023/03/13 01:30:28;;;;;;;0.30;0.00;;;8.20;85.40;;;;;;4998757;28;86691;-72
2023/03/13 01:32:53;;;;;;;0.30;0.00;;;8.20;85.60;;;;;;4972578;28;88216;-72
2023/03/13 01:35:19;;;;;;;0.40;0.00;;;8.20;85.60;;;;;;4977738;28;87822;-72
2023/03/13 01:37:44;;;;;;;0.30;0.00;;;8.10;85.20;;;;;;4978609;28;88319;-72
2023/03/13 01:40:10;;;;;;;0.90;0.00;;;8.10;84.90;;;;;;4997177;28;87475;-71
2023/03/13 01:42:50;;;;;;;1.17;0.00;;;8.10;85.00;;;;;;4974069;28;87579;-73
2023/03/13 01:45:52;;;;;;;0.20;0.00;;;8.10;84.80;;;;;;4977538;28;87814;-75
2023/03/13 01:48:21;;;;;;;0.50;0.08;;;8.20;85.00;;;;;;4977175;28;87837;-72
2023/03/13 01:50:46;;;;;;;0.98;0.00;;;8.20;85.30;;;;;;4971521;28;87214;-73
2023/03/13 01:53:12;;;;;;;0.50;0.00;;;8.20;85.20;;;;;;4975293;28;88270;-77
2023/03/13 01:55:38;;;;;;;0.50;0.10;;;8.20;85.00;;;;;;4972636;28;88350;-75
2023/03/13 01:58:04;;;;;;;0.50;0.10;;;8.20;85.00;;;;;;4986972;28;87324;-72
2023/03/13 02:00:34;;;;;;;0.88;0.00;;;8.20;85.40;;;;;;4997721;28;87660;-71
2023/03/13 02:03:06;;;;;;;0.43;0.00;;;8.10;85.80;;;;;;4980897;28;89915;-71
2023/03/13 02:05:32;;;;;;;0.57;0.03;;;8.00;86.50;;;;;;4981106;28;88771;-71
2023/03/13 02:08:07;;;;;;;0.63;0.10;;;7.90;86.80;;;;;;4966817;28;87288;-74
2023/03/13 02:10:39;;;;;;;0.32;0.00;;;7.90;87.20;;;;;;4975534;28;87442;-70
2023/03/13 02:13:05;;;;;;;1.00;0.10;;;7.80;88.10;;;;;;4976441;28;87865;-71
2023/03/13 02:15:30;;;;;;;0.90;0.00;;;7.70;88.00;;;;;;4977210;28;87409;-71
2023/03/13 02:17:56;;;;;;;0.75;0.10;;;7.70;88.40;;;;;;4986726;28;87553;-74
2023/03/13 02:20:22;;;;;;;0.47;0.00;;;7.60;88.60;;;;;;4992596;28;86564;-72
2023/03/13 02:23:06;;;;;;;1.02;0.03;;;7.60;88.90;;;;;;4972528;28;88927;-73
2023/03/13 02:25:41;;;;;;;1.67;0.10;;;7.60;88.90;;;;;;4973870;28;87411;-73
2023/03/13 02:28:13;;;;;;;0.40;0.00;;;7.70;88.50;;;;;;4992231;28;88175;-73
2023/03/13 02:30:41;;;;;;;0.47;0.00;;;7.80;87.20;;;;;;4978103;28;87586;-74
2023/03/13 02:33:06;;;;;;;0.20;0.00;;;7.90;85.20;;;;;;4973982;28;87609;-71
2023/03/13 02:35:33;;;;;;;0.20;0.00;;;8.20;83.80;;;;;;4976904;28;87560;-74
2023/03/13 02:38:03;;;;;;;0.20;0.00;;;8.40;82.30;;;;;;4983546;28;88772;-74
2023/03/13 02:40:32;;;;;;;0.57;0.03;;;8.50;81.80;;;;;;4987949;28;87597;-72
2023/03/13 02:43:00;;;;;;;0.13;0.00;;;8.60;81.50;;;;;;4976094;28;88017;-73
2023/03/13 02:45:26;;;;;;;0.20;0.00;;;8.70;80.50;;;;;;4980729;28;87394;-73
2023/03/13 02:47:52;;;;;;;0.90;0.00;;;8.80;79.80;;;;;;4979021;28;88330;-74
2023/03/13 02:50:19;;;;;;;0.25;0.00;;;8.90;78.80;;;;;;5000736;28;87619;-74
2023/03/13 02:52:58;;;;;;;0.47;0.00;;;8.90;78.30;;;;;;4984109;28;88765;-74
2023/03/13 02:55:29;;;;;;;0.85;0.00;;;9.00;78.30;;;;;;4976104;28;89260;-72
2023/03/13 02:57:55;;;;;;;0.47;0.00;;;9.00;78.50;;;;;;4987293;28;87384;-73
2023/03/13 03:00:25;;;;;;;0.35;0.00;;;9.10;77.30;;;;;;4988866;28;87119;-76
2023/03/13 03:02:52;;;;;;;0.82;0.00;;;9.00;77.50;;;;;;4999927;28;88843;-75
2023/03/13 03:05:18;;;;;;;0.10;0.00;;;9.00;77.50;;;;;;4999544;28;87986;-73
2023/03/13 03:07:44;;;;;;;0.88;0.00;;;9.00;77.90;;;;;;4987712;28;87305;-72
2023/03/13 03:10:10;;;;;;;0.55;0.00;;;9.00;77.90;;;;;;4983592;28;86750;-75
2023/03/13 03:12:36;;;;;;;0.10;0.00;;;9.00;78.60;;;;;;4978511;28;87623;-74
2023/03/13 03:15:03;;;;;;;0.10;0.00;;;8.90;77.80;;;;;;4970243;28;88029;-72
2023/03/13 03:17:29;;;;;;;0.25;0.00;;;8.90;78.10;;;;;;4979130;28;88258;-74
2023/03/13 03:19:55;;;;;;;0.15;0.00;;;8.90;77.70;;;;;;4980055;28;87655;-73
2023/03/13 03:22:21;;;;;;;0.20;0.00;;;9.00;78.20;;;;;;4999673;28;88275;-73
2023/03/13 03:24:46;;;;;;;0.28;0.00;;;8.90;77.80;;;;;;4999115;28;88427;-71
2023/03/13 03:27:12;;;;;;;0.73;0.00;;;8.90;77.50;;;;;;4991469;28;87739;-72
2023/03/13 03:29:38;;;;;;;1.77;0.00;;;9.00;77.60;;;;;;4985776;28;87251;-71
2023/03/13 03:32:04;;;;;;;0.52;0.00;;;9.00;77.80;;;;;;4974847;28;87884;-72
2023/03/13 03:34:29;;;;;;;1.00;0.00;;;9.00;77.10;;;;;;4972251;28;87910;-73
2023/03/13 03:36:55;;;;;;;0.50;0.10;;;9.00;76.60;;;;;;4979566;28;87443;-71
2023/03/13 03:39:21;;;;;;;0.65;0.00;;;9.00;75.80;;;;;;4992021;28;87252;-71
2023/03/13 03:41:47;;;;;;;0.30;0.00;;;9.00;76.40;;;;;;4985081;28;89359;-72
2023/03/13 03:44:13;;;;;;;0.22;0.00;;;9.10;77.90;;;;;;4986673;28;88056;-73
2023/03/13 03:46:38;;;;;;;0.28;0.00;;;9.10;76.10;;;;;;4992201;28;87410;-73
2023/03/13 03:49:04;;;;;;;0.55;0.00;;;9.20;75.00;;;;;;4971644;28;87344;-70
2023/03/13 03:51:29;;;;;;;0.20;0.00;;;9.20;75.90;;;;;;4972478;28;87479;-74
2023/03/13 03:53:55;;;;;;;0.10;0.00;;;9.20;76.70;;;;;;4977417;28;87437;-72
2023/03/13 03:56:21;;;;;;;0.28;0.00;;;9.30;75.00;;;;;;4975432;28;87288;-72
2023/03/13 03:58:46;;;;;;;0.13;0.00;;;9.30;74.40;;;;;;4995466;28;86900;-70
2023/03/13 04:01:12;;;;;;;1.30;0.00;;;9.30;75.60;;;;;;4996603;28;88425;-73
2023/03/13 04:03:37;;;;;;;0.45;0.00;;;9.30;75.30;;;;;;4999027;28;87386;-72
2023/03/13 04:06:03;;;;;;;0.63;0.00;;;9.30;76.00;;;;;;4977652;28;87972;-72
2023/03/13 04:08:29;;;;;;;0.45;0.00;;;9.30;74.80;;;;;;4979477;28;87323;-72
2023/03/13 04:10:55;;;;;;;0.25;0.00;;;9.30;75.10;;;;;;4974097;28;87854;-72
2023/03/13 04:13:20;;;;;;;1.45;0.00;;;9.30;75.70;;;;;;4981030;28;87381;-70
2023/03/13 04:15:47;;;;;;;0.35;0.00;;;9.30;73.80;;;;;;4998965;28;87207;-71
2023/03/13 04:18:13;;;;;;;1.40;0.03;;;9.30;73.50;;;;;;4999354;28;87711;-73
2023/03/13 04:20:39;;;;;;;0.50;0.00;;;9.30;74.60;;;;;;4998747;28;88026;-74
2023/03/13 04:23:04;;;;;;;0.32;0.03;;;9.30;73.60;;;;;;4977946;28;88534;-72
2023/03/13 04:25:30;;;;;;;0.10;0.00;;;9.40;72.90;;;;;;4993462;28;87202;-73
2023/03/13 04:27:56;;;;;;;0.77;0.00;;;9.50;74.00;;;;;;4979176;28;87408;-72
2023/03/13 04:30:22;;;;;;;0.85;0.00;;;9.60;71.60;;;;;;4977499;28;89282;-73
2023/03/13 04:32:49;;;;;;;0.22;0.00;;;9.60;71.60;;;;;;4978288;28;88926;-71
2023/03/13 04:35:15;;;;;;;0.10;0.00;;;9.60;70.00;;;;;;4979087;28;87157;-73
2023/03/13 04:37:41;;;;;;;0.10;0.00;;;9.70;69.50;;;;;;4966389;28;88701;-72
2023/03/13 04:40:08;;;;;;;0.82;0.00;;;9.80;69.70;;;;;;4959036;28;89011;-74
2023/03/13 04:42:33;;;;;;;1.00;0.00;;;9.80;68.90;;;;;;4974363;28;87850;-71
2023/03/13 04:44:59;;;;;;;0.10;0.00;;;9.90;69.10;;;;;;4977328;28;87282;-71
2023/03/13 04:47:25;;;;;;;1.23;0.00;;;9.90;70.40;;;;;;4975767;28;87196;-71
2023/03/13 04:49:50;;;;;;;2.63;0.00;;;9.80;69.70;;;;;;4990106;28;87979;-71
2023/03/13 04:52:16;;;;;;;0.63;0.10;;;9.90;69.10;;;;;;4978395;28;88337;-72
2023/03/13 04:54:41;;;;;;;0.10;0.00;;;9.80;69.40;;;;;;4974648;28;88064;-73
2023/03/13 04:57:07;;;;;;;0.55;0.00;;;9.80;69.30;;;;;;4975899;28;87368;-71
2023/03/13 04:59:33;;;;;;;0.40;0.00;;;9.80;68.30;;;;;;4976384;28;88030;-73
2023/03/13 05:01:59;;;;;;;0.60;0.10;;;9.90;68.20;;;;;;4977245;28;87962;-72
2023/03/13 05:04:24;;;;;;;1.15;0.00;;;9.90;68.20;;;;;;4967651;28;87312;-72
2023/03/13 05:06:50;;;;;;;0.20;0.00;;;9.90;69.40;;;;;;4970464;28;89263;-70
2023/03/13 05:09:15;;;;;;;0.20;0.00;;;10.00;68.00;;;;;;4973638;28;88758;-74
2023/03/13 05:11:41;;;;;;;0.30;0.00;;;10.00;68.40;;;;;;4979467;28;88321;-72
2023/03/13 05:14:09;;;;;;;0.25;0.00;;;10.00;67.80;;;;;;4973061;28;88990;-71
2023/03/13 05:16:38;;;;;;;0.10;0.00;;;10.00;68.10;;;;;;4983092;28;87311;-71
2023/03/13 05:19:04;;;;;;;0.50;0.00;;;10.10;67.40;;;;;;4978063;28;89091;-70
2023/03/13 05:21:30;;;;;;;0.52;0.00;;;10.10;66.90;;;;;;4986751;28;88292;-73
2023/03/13 05:23:56;;;;;;;0.13;0.00;;;10.20;66.00;;;;;;4984410;28;87515;-73
2023/03/13 05:26:22;;;;;;;0.63;0.00;;;10.20;66.30;;;;;;4973905;28;87708;-70
2023/03/13 05:28:47;;;;;;;0.57;0.00;;;10.20;65.90;;;;;;4967762;28;88280;-72
2023/03/13 05:31:13;;;;;;;0.20;0.00;;;10.10;65.90;;;;;;4981360;28;87457;-72
2023/03/13 05:33:38;;;;;;;0.40;0.00;;;10.10;66.40;;;;;;4968513;28;87302;-74
2023/03/13 05:36:04;;;;;;;0.40;0.00;;;10.10;66.90;;;;;;4970701;28;87156;-72
2023/03/13 05:38:30;;;;;;;0.20;0.00;;;10.00;67.20;;;;;;4969434;28;89129;-71
2023/03/13 05:40:56;;;;;;;0.45;0.00;;;10.00;67.70;;;;;;4971260;28;88320;-73
2023/03/13 05:43:21;;;;;;;0.55;0.00;;;9.90;69.10;;;;;;4964465;28;89592;-78
2023/03/13 05:45:47;;;;;;;0.98;0.00;;;9.80;71.00;;;;;;4964504;28;87599;-74
2023/03/13 05:48:12;;;;;;;1.50;0.00;;;9.60;71.60;;;;;;4969526;28;88341;-73
2023/03/13 05:50:38;;;;;;;0.82;0.00;;;9.60;72.50;;;;;;4964760;28;87806;-73
2023/03/13 05:53:04;;;;;;;0.30;0.00;;;9.50;72.50;;;;;;4965774;28;87496;-72
2023/03/13 05:55:29;;;;;;;1.98;0.00;;;9.40;72.40;;;;;;4976158;28;87442;-72
2023/03/13 05:57:55;;;;;;;0.17;0.00;;;9.30;72.10;;;;;;4979925;28;88623;-73
2023/03/13 06:00:21;;;;;;;1.73;0.00;;;9.30;72.40;;;;;;4983537;28;87640;-72
2023/03/13 06:02:47;;;;;;;0.25;0.00;;;9.30;73.50;;;;;;4968177;28;87192;-72
2023/03/13 06:05:13;;;;;;;0.30;0.03;;;9.30;72.70;;;;;;4973582;28;87825;-72
2023/03/13 06:07:38;;;;;;;0.50;0.10;;;9.30;73.20;;;;;;4968802;28;88885;-70
2023/03/13 06:10:04;;;;;;;0.50;0.00;;;9.30;73.80;;;;;;4976961;28;88287;-73
2023/03/13 06:12:31;;;;;;;0.93;0.10;;;9.30;72.10;;;;;;4989000;28;87320;-72
2023/03/13 06:14:56;;;;;;;1.20;0.10;;;9.40;71.70;;;;;;4966199;28;87353;-73
2023/03/13 06:17:24;;;;;;;0.30;0.00;;;9.40;71.60;;;;;;4974121;28;87528;-72
2023/03/13 06:19:49;;;;;;;0.82;0.05;;;9.50;70.70;;;;;;4968687;28;87482;-75
2023/03/13 06:22:16;;;;;;;0.45;0.00;;;9.50;70.60;;;;;;4969888;28;87303;-71
2023/03/13 06:24:43;;;;;;;1.88;0.20;;;9.50;71.20;;;;;;4974780;28;87195;-71
2023/03/13 06:27:09;;;;;;;1.42;0.10;;;9.50;71.20;;;;;;4975834;28;88217;-70
2023/03/13 06:29:35;;;;;;;0.90;0.00;;;9.50;71.80;;;;;;4977324;28;87731;-75
2023/03/13 06:32:00;;;;;;;0.40;0.00;;;9.40;72.50;;;;;;4973920;28;89374;-74
2023/03/13 06:34:26;;;;;;;0.30;0.00;;;9.40;72.70;;;;;;4972897;28;87450;-72
2023/03/13 06:36:51;;;;;;;0.45;0.03;;;9.30;72.90;;;;;;4970320;28;89877;-75
2023/03/13 06:39:17;;;;;;;0.77;0.10;;;9.40;73.00;;;;;;4972347;28;88078;-72
2023/03/13 06:41:43;;;;;;;0.90;0.03;;;9.40;74.00;;;;;;4978972;28;87670;-78
2023/03/13 06:44:08;;;;;;;0.85;0.00;;;9.50;73.40;;;;;;4969522;28;89233;-78
2023/03/13 06:46:34;;;;;;;1.88;0.10;;;9.60;73.30;;;;;;4966299;28;88156;-73
2023/03/13 06:49:03;;;;;;;1.00;0.00;;;9.70;72.00;;;;;;4976376;28;86745;-73
2023/03/13 06:51:29;;;;;;;3.72;0.20;;;9.70;71.90;;;;;;4974610;28;87485;-70
2023/03/13 06:53:54;;;;;;;2.58;0.10;;;9.70;73.30;;;;;;4983531;28;87402;-75
2023/03/13 06:56:24;;;;;;;3.97;0.10;;;9.60;73.90;;;;;;4960988;28;89011;-72
2023/03/13 06:58:50;;;;;;;2.28;0.10;;;9.50;73.90;;;;;;4980790;28;88199;-75
2023/03/13 07:01:16;;;;;;;1.02;0.00;;;9.40;74.00;;;;;;4970767;28;87680;-72
2023/03/13 07:03:43;;;;;;;0.63;0.10;;;9.40;74.20;;;;;;4964411;28;87043;-73
2023/03/13 07:06:09;;;;;;;0.70;0.00;;;9.30;74.20;;;;;;4972460;28;87379;-74
2023/03/13 07:08:36;;;;;;;0.70;0.10;;;9.30;74.40;;;;;;4976937;28;88720;-72
2023/03/13 07:11:05;;;;;;;0.38;0.10;;;9.30;75.40;;;;;;4975569;28;88773;-75
2023/03/13 07:13:31;;;;;;;10.02;0.20;;;9.30;75.10;;;;;;4974991;28;86727;-74
2023/03/13 07:16:04;;;;;;;1.17;0.13;;;9.30;75.00;;;;;;4970767;28;88527;-76
2023/03/13 07:18:31;;;;;;;1.50;0.30;;;9.30;75.90;;;;;;4966001;28;87464;-73
2023/03/13 07:20:59;;;;;;;1.30;0.10;;;9.30;76.10;;;;;;4976711;28;88828;-76
2023/03/13 07:23:27;;;;;;;1.95;0.20;;;9.40;76.10;;;;;;4963114;28;87757;-75
2023/03/13 07:25:58;;;;;;;0.93;0.15;;;9.40;76.60;;;;;;4969873;28;88663;-74
2023/03/13 07:28:25;;;;;;;0.60;0.00;;;9.40;74.40;;;;;;4963052;28;88457;-72
2023/03/13 07:30:51;;;;;;;1.10;0.10;;;9.50;74.10;;;;;;4974026;28;87467;-75
2023/03/13 07:33:18;;;;;;;1.25;0.20;;;9.60;74.40;;;;;;4971750;28;87454;-73
2023/03/13 07:35:50;;;;;;;5.50;0.22;;;9.70;75.40;;;;;;4972480;28;88249;-72
2023/03/13 07:38:16;;;;;;;4.22;0.10;;;9.70;73.30;;;;;;4970469;28;88323;-74
2023/03/13 07:40:49;;;;;;;7.05;0.10;;;9.70;74.20;;;;;;4974496;28;88566;-72
2023/03/13 07:43:15;;;;;;;1.35;0.10;;;9.80;74.10;;;;;;4975166;28;87281;-73
2023/03/13 07:45:53;;;;;;;1.05;0.10;;;9.80;72.10;;;;;;4980866;28;88635;-74
2023/03/13 07:48:20;;;;;;;3.88;0.10;;;9.90;72.70;;;;;;4973938;28;89710;-74
2023/03/13 07:50:46;;;;;;;0.55;0.10;;;9.90;71.60;;;;;;4968653;28;87604;-78
2023/03/13 07:53:12;;;;;;;2.45;0.10;;;9.90;72.10;;;;;;4969808;28;87407;-72
2023/03/13 07:55:38;;;;;;;2.88;0.10;;;10.00;72.00;;;;;;4965547;28;88498;-73
2023/03/13 07:58:04;;;;;;;0.90;0.13;;;10.00;72.20;;;;;;4973937;28;88012;-74
2023/03/13 08:00:29;;;;;;;1.38;0.10;;;10.10;72.00;;;;;;4971864;28;87563;-75
2023/03/13 08:02:55;;;;;;;1.33;0.20;;;10.10;71.60;;;;;;4967686;28;88740;-75
2023/03/13 08:05:21;;;;;;;2.33;0.10;;;10.20;72.10;;;;;;4977481;28;88204;-71
2023/03/13 08:07:46;;;;;;;1.27;0.10;;;10.40;71.20;;;;;;4976065;28;87875;-73
2023/03/13 08:10:12;;;;;;;2.15;0.10;;;10.60;70.60;;;;;;4971015;28;88867;-72
2023/03/13 08:12:38;;;;;;;2.28;0.13;;;10.80;69.40;;;;;;4970999;28;87847;-75
2023/03/13 08:15:03;;;;;;;4.10;0.10;;;10.90;69.70;;;;;;4979331;28;88160;-73
2023/03/13 08:17:29;;;;;;;1.60;0.00;;;11.00;68.50;;;;;;4986545;28;88816;-72
2023/03/13 08:19:55;;;;;;;1.02;0.10;;;11.00;67.60;;;;;;4994385;28;87224;-72
2023/03/13 08:22:21;;;;;;;0.65;0.00;;;11.10;67.10;;;;;;4964921;28;89026;-72
2023/03/13 08:24:47;;;;;;;1.13;0.15;;;11.20;65.60;;;;;;4964307;28;88128;-71
2023/03/13 08:27:12;;;;;;;0.65;0.10;;;11.30;67.00;;;;;;4973185;28;87605;-71
2023/03/13 08:29:38;;;;;;;0.43;0.00;;;11.40;65.90;;;;;;4977165;28;88756;-72
2023/03/13 08:32:04;;;;;;;0.98;0.20;;;11.40;65.30;;;;;;4972948;28;89334;-74
2023/03/13 08:34:30;;;;;;;1.05;0.10;;;11.40;64.80;;;;;;4971114;28;88496;-73
2023/03/13 08:36:56;;;;;;;2.67;0.10;;;11.40;65.50;;;;;;4982800;28;89387;-72
2023/03/13 08:39:22;;;;;;;0.70;0.10;;;11.40;65.40;;;;;;4970802;28;87536;-74
2023/03/13 08:41:48;;;;;;;4.00;0.10;;;11.40;64.70;;;;;;4975867;28;87824;-75
2023/03/13 08:44:16;;;;;;;0.55;0.00;;;11.50;65.40;;;;;;4974191;28;89020;-70
2023/03/13 08:46:42;;;;;;;2.42;0.10;;;11.60;65.50;;;;;;4973788;28;89193;-73
2023/03/13 08:49:09;;;;;;;2.00;0.10;;;11.90;64.80;;;;;;4969518;28;87608;-72
2023/03/13 08:51:35;;;;;;;1.25;0.10;;;12.20;64.20;;;;;;4975200;28;86404;-75
2023/03/13 08:54:02;;;;;;;1.10;0.20;;;12.70;63.10;;;;;;4973514;28;87669;-73
2023/03/13 08:56:30;;;;;;;1.00;0.10;;;13.60;60.60;;;;;;4974235;28;88553;-74
2023/03/13 08:59:00;;;;;;;1.92;0.20;;;14.40;59.10;;;;;;4966256;28;88428;-74
2023/03/13 09:01:28;;;;;;;1.27;0.30;;;15.00;57.10;;;;;;4987657;28;87568;-74
2023/03/13 09:03:55;;;;;;;2.10;0.28;;;16.50;55.20;;;;;;4983447;28;88589;-71
2023/03/13 09:06:21;;;;;;;5.30;0.30;;;18.20;51.40;;;;;;4975789;28;88235;-76
2023/03/13 09:08:46;;;;;;;3.13;0.28;;;20.20;48.10;;;;;;4960558;28;87374;-76
2023/03/13 09:11:15;;;;;;;3.95;0.45;;;21.90;45.40;;;;;;4968850;28;87855;-69
2023/03/13 09:13:43;;;;;;;2.20;0.50;;;22.20;44.20;;;;;;4979072;28;88209;-75
2023/03/13 09:16:15;;;;;;;5.57;0.30;;;21.70;42.70;;;;;;4974124;28;87483;-78
2023/03/13 09:18:41;;;;;;;3.95;0.30;;;21.20;44.50;;;;;;4969634;28;87340;-77
2023/03/13 09:21:10;;;;;;;3.63;0.47;;;21.80;43.50;;;;;;4975965;28;88487;-74
2023/03/13 09:23:36;;;;;;;2.78;0.60;;;22.60;42.30;;;;;;4971152;28;90008;-76
2023/03/13 09:26:02;;;;;;;4.22;0.43;;;23.30;41.00;;;;;;4981826;28;88738;-74
2023/03/13 09:28:28;;;;;;;3.03;0.30;;;23.30;39.50;;;;;;4971730;28;87665;-73
2023/03/13 09:30:54;;;;;;;1.95;0.73;;;23.90;40.00;;;;;;4977333;28;88005;-74
2023/03/13 09:33:24;;;;;;;2.10;0.75;;;25.00;39.10;;;;;;4997317;28;87398;-75
2023/03/13 09:35:49;;;;;;;1.10;0.35;;;25.30;38.50;;;;;;4997192;28;87763;-72
2023/03/13 09:38:17;;;;;;;2.20;0.22;;;24.80;37.80;;;;;;4984530;28;87419;-75
2023/03/13 09:40:53;;;;;;;1.25;0.52;;;24.40;39.50;;;;;;4990654;28;86364;-73
2023/03/13 09:43:37;;;;;;;2.08;0.52;;;23.90;38.80;;;;;;4980605;28;88600;-74
2023/03/13 09:46:07;;;;;;;1.13;0.35;;;22.80;40.80;;;;;;4971478;28;87736;-74
2023/03/13 09:48:40;;;;;;;2.13;0.40;;;21.80;41.80;;;;;;4976194;28;88417;-73
2023/03/13 09:51:20;;;;;;;1.83;0.50;;;23.50;40.20;;;;;;4981543;28;87485;-72
2023/03/13 09:54:09;;;;;;;2.00;0.30;;;24.00;38.50;;;;;;4982015;28;88787;-73
2023/03/13 09:57:08;;;;;;;0.85;0.30;;;23.60;38.60;;;;;;4986622;28;87747;-77
2023/03/13 09:59:42;;;;;;;3.47;0.52;;;23.80;38.70;;;;;;4991548;28;87590;-72
2023/03/13 10:02:24;;;;;;;3.83;0.50;;;24.60;39.30;;;;;;4988804;28;87122;-73
2023/03/13 10:04:52;;;;;;;;;;;26.20;36.70;;;;;;4981720;28;88118;-75
2023/03/13 10:07:20;;;;;;;1.88;0.90;;;27.50;35.20;;;;;;4993819;28;86960;-75
2023/03/13 10:09:45;;;;;;;2.47;0.93;;;27.90;35.10;;;;;;4974019;28;88080;-72
2023/03/13 10:12:21;;;;;;;1.85;0.80;;;29.00;34.40;;;;;;4969767;28;88637;-75
2023/03/13 10:15:04;;;;;;;2.95;0.70;;;29.80;33.50;;;;;;4969165;28;89803;-77
2023/03/13 10:17:35;;;;;;;4.93;0.88;;;30.40;33.50;;;;;;4977248;28;88811;-74
2023/03/13 10:20:23;;;;;;;4.63;1.15;;;30.90;33.50;;;;;;4965626;28;87160;-73
2023/03/13 10:23:01;;;;;;;4.47;1.80;;;30.50;32.50;;;;;;4977518;28;87880;-76
2023/03/13 10:25:31;;;;;;;2.95;0.93;;;30.60;33.60;;;;;;4984921;28;88058;-73
2023/03/13 10:27:57;;;;;;;4.03;1.13;;;30.20;33.20;;;;;;4991363;28;87399;-72
2023/03/13 10:30:34;;;;;;;2.80;1.38;;;30.10;34.20;;;;;;4996366;28;87417;-72
2023/03/13 10:33:06;;;;;;;5.32;1.10;;;29.00;34.80;;;;;;4976685;28;86682;-72
2023/03/13 10:35:38;;;;;;;4.32;1.30;;;27.80;35.80;;;;;;4999422;28;87986;-71
2023/03/13 10:38:24;;;;;;;3.88;0.55;;;26.70;36.20;;;;;;4981326;28;90861;-75
2023/03/13 10:40:58;;;;;;;5.13;1.05;;;25.70;38.30;;;;;;4999697;28;88453;-73
2023/03/13 10:43:25;;;;;;;2.97;0.60;;;24.60;39.30;;;;;;4975301;28;87176;-71
2023/03/13 10:45:51;;;;;;;3.05;0.80;;;23.80;40.90;;;;;;4982989;28;87371;-73
2023/03/13 10:48:25;;;;;;;2.03;0.80;;;23.00;42.60;;;;;;4972457;28;87785;-72
2023/03/13 10:50:56;;;;;;;1.40;0.50;;;22.60;42.60;;;;;;4979431;28;87610;-73
2023/03/13 10:53:23;;;;;;;3.00;0.52;;;22.20;42.20;;;;;;4977205;28;88459;-74
2023/03/13 10:55:52;;;;;;;3.92;0.32;;;21.50;43.00;;;;;;4977557;28;88090;-71
2023/03/13 10:58:33;;;;;;;3.63;0.30;;;21.10;44.90;;;;;;4973806;28;87985;-71
2023/03/13 11:01:16;;;;;;;2.22;0.30;;;21.00;46.10;;;;;;4973933;28;88853;-75
2023/03/13 11:03:42;;;;;;;1.88;0.40;;;21.00;45.10;;;;;;4963965;28;88097;-72
2023/03/13 11:06:28;;;;;;;1.52;0.25;;;21.00;45.50;;;;;;4977634;28;89029;-72
2023/03/13 11:09:12;;;;;;;3.83;0.20;;;21.10;45.40;;;;;;4973288;28;88187;-75
2023/03/13 11:11:49;;;;;;;3.42;0.20;;;21.00;44.50;;;;;;4978597;28;87715;-72
2023/03/13 11:14:23;;;;;;;1.55;0.40;;;20.90;45.80;;;;;;4977588;28;87425;-72
2023/03/13 11:17:04;;;;;;;3.17;0.60;;;21.10;46.40;;;;;;4975370;28;88297;-74
2023/03/13 11:20:20;;;;;;;1.77;0.40;;;21.20;45.80;;;;;;4967510;28;87953;-74
2023/03/13 11:23:04;;;;;;;2.78;0.40;;;21.30;43.60;;;;;;4968588;28;87609;-74
2023/03/13 11:25:47;;;;;;;4.28;0.20;;;21.40;44.60;;;;;;4965255;28;87070;-72
2023/03/13 11:28:27;;;;;;;0.82;0.20;;;21.70;42.80;;;;;;4969680;28;88776;-78
2023/03/13 11:31:02;;;;;;;5.00;1.25;;;21.70;41.30;;;;;;4971784;28;88313;-73
2023/03/13 11:33:31;;;;;;;2.05;0.30;;;21.80;41.90;;;;;;4969953;28;88754;-73
2023/03/13 11:36:24;;;;;;;1.15;0.28;;;21.80;42.40;;;;;;4975777;28;87300;-74
2023/03/13 11:39:44;;;;;;;1.58;0.20;;;22.00;42.00;;;;;;4976631;28;88635;-71
2023/03/13 11:42:37;;;;;;;6.30;0.45;;;22.10;42.20;;;;;;4970318;28;87793;-74
2023/03/13 11:45:29;;;;;;;1.80;0.30;;;21.80;41.80;;;;;;4962715;28;87558;-77
2023/03/13 11:48:27;;;;;;;3.17;0.38;;;21.40;42.50;;;;;;4964760;28;88753;-76
2023/03/13 11:51:01;;;;;;;2.42;0.45;;;21.30;42.70;;;;;;4971705;28;89565;-74
2023/03/13 11:53:39;;;;;;;6.22;0.32;;;21.30;43.60;;;;;;4964355;28;87362;-72
2023/03/13 11:56:21;;;;;;;2.05;0.50;;;21.20;44.20;;;;;;4987390;28;87292;-73
2023/03/13 11:59:08;;;;;;;7.07;0.20;;;21.20;45.20;;;;;;4983274;28;87641;-72
2023/03/13 12:01:39;;;;;;;5.57;0.32;;;21.20;44.10;;;;;;4976755;28;89155;-76
2023/03/13 12:04:21;;;;;;;8.05;0.43;;;21.10;44.40;;;;;;4958388;28;88820;-75
2023/03/13 12:06:54;;;;;;;1.38;0.20;;;21.10;44.70;;;;;;4940917;28;89141;-74
2023/03/13 12:09:31;;;;;;;1.80;0.25;;;20.90;46.20;;;;;;4946818;28;88545;-80
2023/03/13 12:12:14;;;;;;;2.50;0.20;;;20.90;45.80;;;;;;4950078;28;88230;-72
2023/03/13 12:14:58;;;;;;;2.92;0.10;;;20.90;46.40;;;;;;4946219;28;89744;-75
2023/03/13 12:17:30;;;;;;;3.13;0.30;;;20.90;45.60;;;;;;4949150;28;89152;-75
2023/03/13 12:20:16;;;;;;;10.30;0.40;;;21.00;45.70;;;;;;4951052;28;88210;-80
2023/03/13 12:22:57;;;;;;;0.98;0.10;;;21.10;46.70;;;;;;4948305;28;89286;-77
2023/03/13 12:25:27;;;;;;;2.08;0.20;;;21.20;47.20;;;;;;4951887;28;88847;-74
2023/03/13 12:28:22;;;;;;;4.95;0.43;;;21.30;46.40;;;;;;4965210;28;90947;-74
2023/03/13 12:31:15;;;;;;;0.73;0.10;;;21.10;46.40;;;;;;4960487;28;88018;-72
2023/03/13 12:33:44;;;;;;;3.28;0.15;;;21.10;46.30;;;;;;4967892;28;89356;-72
2023/03/13 12:36:12;;;;;;;1.55;0.50;;;21.20;46.00;;;;;;4970686;28;87678;-72
2023/03/13 12:38:48;;;;;;;2.80;0.63;;;21.20;46.60;;;;;;4968586;28;87530;-77
2023/03/13 12:41:24;;;;;;;6.90;0.32;;;21.30;47.40;;;;;;4976908;28;88244;-73
2023/03/13 12:43:52;;;;;;;0.82;0.13;;;21.40;47.30;;;;;;4963309;28;88632;-74
2023/03/13 12:46:39;;;;;;;6.07;0.70;;;21.50;47.00;;;;;;4961746;28;90547;-73
2023/03/13 12:49:23;;;;;;;13.98;3.95;;;21.50;47.80;;;;;;4968263;28;87857;-74
2023/03/13 12:52:23;;;;;;;11.18;4.25;;;21.60;48.30;;;;;;4989721;28;87478;-73
2023/03/13 12:55:17;;;;;;;7.82;0.50;;;21.50;47.80;;;;;;4971811;28;89567;-75
2023/03/13 12:58:05;;;;;;;2.53;0.38;;;21.50;47.40;;;;;;4977304;28;88232;-71
2023/03/13 13:00:35;;;;;;;0.88;0.13;;;21.50;47.80;;;;;;4981738;28;87490;-73
2023/03/13 13:03:19;;;;;;;26.10;2.13;;;21.50;47.50;;;;;;4981384;28;88926;-71
2023/03/13 13:06:03;;;;;;;1.55;0.30;;;21.50;47.50;;;;;;4970844;28;88139;-72
2023/03/13 13:08:35;;;;;;;6.07;0.38;;;21.40;48.40;;;;;;4980735;28;87129;-70